Time;durP1;ratioP1;P1;durP2;ratioP2;P2;SDS_P1;SDS_P2;PMS_P1;PMS_P2;Temp;Humidity;BMP_temperature;BMP_pressure;BME280_temperature;BME280_humidity;BME280_pressure;Samples;Min_cycle;Max_cycle;Signal;HPM_P1;HPM_P2
2023/12/18 00:01:59;;;;;;;;;;;;;;;21.60;23.20;99511.88;4922777;29;805;-73
2023/12/18 00:04:24;;;;;;;;;;;;;;;21.84;22.78;99519.50;4919011;29;1130;-73
2023/12/18 00:06:50;;;;;;;;;;;;;;;21.72;22.83;99511.44;4919458;29;1275;-72
2023/12/18 00:09:15;;;;;;;;;;;;;;;21.57;23.08;99521.19;4909118;28;886;-72
2023/12/18 00:11:41;;;;;;;;;;;;;;;21.70;23.15;99511.03;4976964;28;749;-73
2023/12/18 00:14:07;;;;;;;;;;;;;;;21.70;22.91;99516.69;4976676;28;807;-72
2023/12/18 00:16:32;;;;;;;;;;;;;;;21.76;23.10;99506.59;4976321;28;1988;-72
2023/12/18 00:18:58;;;;;;;;;;;;;;;21.56;23.34;99513.94;4990279;28;853;-73
2023/12/18 00:21:23;;;;;;;;;;;;;;;21.58;23.16;99517.94;4993845;28;908;-73
2023/12/18 00:23:49;;;;;;;;;;;;;;;21.65;23.03;99517.13;4999106;28;1504;-73
2023/12/18 00:26:14;;;;;;;;;;;;;;;21.81;23.09;99506.16;4999333;28;895;-72
2023/12/18 00:28:40;;;;;;;;;;;;;;;21.77;22.83;99505.38;4999429;28;719;-73
2023/12/18 00:31:05;;;;;;;;;;;;;;;21.72;23.06;99514.28;5015188;28;992;-72
2023/12/18 00:33:31;;;;;;;;;;;;;;;21.99;22.58;99503.25;4998556;28;1220;-73
2023/12/18 00:35:56;;;;;;;;;;;;;;;21.82;22.98;99516.28;4996361;28;1983;-72
2023/12/18 00:38:22;;;;;;;;;;;;;;;21.82;22.93;99509.81;4997881;28;847;-73
2023/12/18 00:40:47;;;;;;;;;;;;;;;21.73;22.90;99518.72;4998109;28;832;-72
2023/12/18 00:43:15;;;;;;;;;;;;;;;21.61;23.18;99516.34;5013478;28;756;-73
2023/12/18 00:45:40;;;;;;;;;;;;;;;21.58;23.13;99502.97;5012934;28;1087;-73
2023/12/18 00:48:06;;;;;;;;;;;;;;;21.78;22.96;99494.84;5015061;28;902;-73
2023/12/18 00:50:31;;;;;;;;;;;;;;;21.83;23.04;99489.53;5015211;28;824;-73
2023/12/18 00:52:57;;;;;;;;;;;;;;;21.76;23.11;99492.41;4999031;28;759;-73
2023/12/18 00:55:22;;;;;;;;;;;;;;;21.92;22.77;99491.16;4998811;28;1984;-73
2023/12/18 00:57:48;;;;;;;;;;;;;;;21.61;23.33;99493.69;5015026;28;833;-73
2023/12/18 01:00:13;;;;;;;;;;;;;;;21.82;23.10;99487.94;5015096;28;755;-72
2023/12/18 01:02:39;;;;;;;;;;;;;;;21.77;23.17;99477.03;5013493;28;941;-73
2023/12/18 01:05:05;;;;;;;;;;;;;;;21.92;22.98;99474.94;5014772;28;755;-73
2023/12/18 01:07:30;;;;;;;;;;;;;;;21.79;22.93;99473.78;4998528;28;891;-73
2023/12/18 01:09:58;;;;;;;;;;;;;;;21.59;23.26;99462.09;4982043;28;962;-73
2023/12/18 01:12:24;;;;;;;;;;;;;;;21.76;23.03;99458.41;4998438;28;1056;-73
2023/12/18 01:14:50;;;;;;;;;;;;;;;21.52;23.08;99462.94;4959180;28;1108;-73
2023/12/18 01:17:15;;;;;;;;;;;;;;;21.39;23.43;99458.13;4959407;28;1986;-73
2023/12/18 01:19:41;;;;;;;;;;;;;;;21.63;23.28;99451.59;4975696;28;900;-73
2023/12/18 01:22:07;;;;;;;;;;;;;;;21.67;23.04;99460.88;4953111;28;1191;-73
2023/12/18 01:24:33;;;;;;;;;;;;;;;21.65;22.79;99454.00;4936951;29;1164;-72
2023/12/18 01:26:58;;;;;;;;;;;;;;;21.75;23.00;99447.47;4921181;29;928;-72
2023/12/18 01:29:24;;;;;;;;;;;;;;;21.64;23.29;99441.84;4920826;29;752;-73
2023/12/18 01:31:49;;;;;;;;;;;;;;;21.65;23.06;99449.13;4936820;29;817;-72
2023/12/18 01:34:15;;;;;;;;;;;;;;;21.69;23.21;99447.09;4945858;28;1238;-73
2023/12/18 01:36:40;;;;;;;;;;;;;;;21.71;22.79;99446.69;4939908;28;1972;-73
2023/12/18 01:39:06;;;;;;;;;;;;;;;21.59;23.19;99442.28;4955760;28;1050;-73
2023/12/18 01:41:31;;;;;;;;;;;;;;;21.54;23.34;99437.03;4939743;28;1335;-73
2023/12/18 01:43:57;;;;;;;;;;;;;;;21.97;22.58;99436.88;4939978;29;736;-73
2023/12/18 01:46:22;;;;;;;;;;;;;;;21.54;23.28;99443.50;4956242;28;909;-73
2023/12/18 01:48:48;;;;;;;;;;;;;;;21.81;22.92;99454.31;4939631;29;744;-72
2023/12/18 01:51:14;;;;;;;;;;;;;;;21.84;22.74;99454.31;4958918;28;830;-73
2023/12/18 01:53:42;;;;;;;;;;;;;;;21.64;23.06;99449.56;4978138;28;1287;-73
2023/12/18 01:56:07;;;;;;;;;;;;;;;21.58;23.30;99457.66;4978372;28;1931;-73
2023/12/18 01:58:33;;;;;;;;;;;;;;;21.58;23.19;99449.16;4996265;28;1086;-72
2023/12/18 02:00:59;;;;;;;;;;;;;;;21.76;22.62;99460.41;5031444;28;840;-73
2023/12/18 02:03:25;;;;;;;;;;;;;;;21.67;22.83;99454.41;4994071;28;1309;-72
2023/12/18 02:05:50;;;;;;;;;;;;;;;21.70;22.67;99453.56;4993990;28;826;-73
2023/12/18 02:08:15;;;;;;;;;;;;;;;21.65;22.94;99449.13;4994246;28;947;-72
2023/12/18 02:10:42;;;;;;;;;;;;;;;21.82;22.49;99438.97;4994413;28;747;-72
2023/12/18 02:13:07;;;;;;;;;;;;;;;21.98;22.63;99432.81;4993823;28;791;-73
2023/12/18 02:15:33;;;;;;;;;;;;;;;21.74;22.84;99435.34;4993805;28;1906;-73
2023/12/18 02:17:58;;;;;;;;;;;;;;;21.74;23.01;99441.00;4994362;28;1027;-72
2023/12/18 02:20:24;;;;;;;;;;;;;;;21.71;22.77;99436.19;4993931;28;1258;-73
2023/12/18 02:22:50;;;;;;;;;;;;;;;21.67;22.76;99438.22;4993757;28;924;-73
2023/12/18 02:25:15;;;;;;;;;;;;;;;21.59;22.79;99433.78;4994038;28;791;-73
2023/12/18 02:27:41;;;;;;;;;;;;;;;21.69;22.99;99426.47;4974044;28;900;-73
2023/12/18 02:30:07;;;;;;;;;;;;;;;21.84;22.68;99423.16;4958349;28;1127;-73
2023/12/18 02:32:32;;;;;;;;;;;;;;;21.85;22.62;99424.75;4974708;28;903;-73
2023/12/18 02:34:58;;;;;;;;;;;;;;;21.77;22.60;99428.88;5002887;28;1988;-73
2023/12/18 02:37:24;;;;;;;;;;;;;;;21.83;22.74;99426.41;4996632;28;1276;-73
2023/12/18 02:39:49;;;;;;;;;;;;;;;21.62;22.95;99427.31;4997368;28;761;-72
2023/12/18 02:42:15;;;;;;;;;;;;;;;21.49;23.38;99417.63;5013069;28;919;-73
2023/12/18 02:44:40;;;;;;;;;;;;;;;21.70;22.62;99420.38;5013243;28;767;-72
2023/12/18 02:47:06;;;;;;;;;;;;;;;21.90;22.50;99411.38;4997209;28;760;-73
2023/12/18 02:49:31;;;;;;;;;;;;;;;21.94;22.53;99415.81;4996864;28;791;-73
2023/12/18 02:51:57;;;;;;;;;;;;;;;21.55;22.80;99416.00;4997489;28;885;-73
2023/12/18 02:54:22;;;;;;;;;;;;;;;21.83;22.67;99410.22;4996752;28;1094;-73
2023/12/18 02:56:48;;;;;;;;;;;;;;;21.73;22.55;99405.41;5013034;28;1894;-73
2023/12/18 02:59:13;;;;;;;;;;;;;;;21.85;22.59;99399.25;4968856;28;998;-72
2023/12/18 03:01:39;;;;;;;;;;;;;;;21.65;22.78;99392.47;4958139;28;1132;-73
2023/12/18 03:04:04;;;;;;;;;;;;;;;21.72;22.68;99383.97;4957948;28;809;-72
2023/12/18 03:06:30;;;;;;;;;;;;;;;22.03;22.22;99375.69;4973965;28;674;-72
2023/12/18 03:08:55;;;;;;;;;;;;;;;21.78;22.83;99382.31;4974348;28;959;-73
2023/12/18 03:11:21;;;;;;;;;;;;;;;21.71;22.61;99362.53;4974219;28;759;-73
2023/12/18 03:13:47;;;;;;;;;;;;;;;21.78;22.73;99373.00;4957910;28;880;-72
2023/12/18 03:16:12;;;;;;;;;;;;;;;21.93;22.65;99373.72;4957986;28;1985;-73
2023/12/18 03:18:38;;;;;;;;;;;;;;;21.81;22.82;99367.31;4973955;28;1020;-73
2023/12/18 03:21:07;;;;;;;;;;;;;;;21.83;22.68;99364.88;4958280;28;736;-72
2023/12/18 03:23:32;;;;;;;;;;;;;;;22.00;22.60;99368.00;4957854;28;1663;-72
2023/12/18 03:25:58;;;;;;;;;;;;;;;21.78;22.71;99362.47;4943767;28;954;-73
2023/12/18 03:28:23;;;;;;;;;;;;;;;21.77;22.74;99371.41;4977920;28;763;-72
2023/12/18 03:30:49;;;;;;;;;;;;;;;21.75;22.62;99379.47;4986223;28;867;-72
2023/12/18 03:33:14;;;;;;;;;;;;;;;21.87;22.59;99381.06;5035346;28;1265;-73
2023/12/18 03:35:40;;;;;;;;;;;;;;;21.63;22.57;99389.25;5037378;28;1969;-73
2023/12/18 03:38:05;;;;;;;;;;;;;;;21.80;22.70;99394.03;5037528;28;744;-73
2023/12/18 03:40:31;;;;;;;;;;;;;;;21.65;22.63;99400.16;5020911;28;760;-73
2023/12/18 03:42:56;;;;;;;;;;;;;;;21.54;23.13;99403.06;5020498;28;1109;-73
2023/12/18 03:45:22;;;;;;;;;;;;;;;21.82;22.47;99402.94;5037303;28;822;-73
2023/12/18 03:47:47;;;;;;;;;;;;;;;21.80;22.52;99399.69;5038844;28;1032;-72
2023/12/18 03:50:13;;;;;;;;;;;;;;;21.92;22.62;99400.47;5038293;28;759;-74
2023/12/18 03:52:38;;;;;;;;;;;;;;;21.87;22.47;99398.88;5037144;28;798;-73
2023/12/18 03:55:04;;;;;;;;;;;;;;;21.78;22.44;99402.13;5037329;28;1902;-73
2023/12/18 03:57:30;;;;;;;;;;;;;;;21.66;22.70;99399.78;5019345;28;1018;-72
2023/12/18 03:59:57;;;;;;;;;;;;;;;21.65;23.08;99386.81;5020085;28;740;-72
2023/12/18 04:02:23;;;;;;;;;;;;;;;21.59;23.01;99394.13;4996524;28;888;-72
2023/12/18 04:04:48;;;;;;;;;;;;;;;21.63;22.70;99389.25;4996294;28;963;-73
2023/12/18 04:07:14;;;;;;;;;;;;;;;21.68;22.67;99379.53;4996563;28;848;-73
2023/12/18 04:09:40;;;;;;;;;;;;;;;21.69;22.69;99387.59;4995982;28;799;-72
2023/12/18 04:12:05;;;;;;;;;;;;;;;21.64;22.83;99385.22;4996579;28;780;-73
2023/12/18 04:14:31;;;;;;;;;;;;;;;21.69;22.71;99381.94;4995956;28;768;-73
2023/12/18 04:16:56;;;;;;;;;;;;;;;21.89;22.53;99389.94;4979614;28;1975;-72
2023/12/18 04:19:22;;;;;;;;;;;;;;;21.84;22.73;99389.16;4996350;28;772;-73
2023/12/18 04:21:47;;;;;;;;;;;;;;;21.71;22.96;99378.69;4996355;28;1187;-73
2023/12/18 04:24:13;;;;;;;;;;;;;;;21.85;22.72;99385.09;4996061;28;1116;-73
2023/12/18 04:26:38;;;;;;;;;;;;;;;21.80;22.83;99388.34;4995939;28;700;-73
2023/12/18 04:29:04;;;;;;;;;;;;;;;21.61;23.05;99386.06;4995896;28;930;-72
2023/12/18 04:31:30;;;;;;;;;;;;;;;21.84;22.81;99389.16;4995789;28;1088;-72
2023/12/18 04:33:55;;;;;;;;;;;;;;;21.55;23.28;99376.34;5025456;28;1061;-73
2023/12/18 04:36:21;;;;;;;;;;;;;;;21.50;23.29;99391.75;5018112;28;1981;-73
2023/12/18 04:38:47;;;;;;;;;;;;;;;21.88;22.85;99382.66;5035149;28;923;-72
2023/12/18 04:41:21;;;;;;;;;;;;;;;21.87;22.68;99378.22;5014758;28;899;-73
2023/12/18 04:43:47;;;;;;;;;;;;;;;21.29;23.19;99375.59;4950431;28;1140;-73
2023/12/18 04:46:13;;;;;;;;;;;;;;;21.68;23.06;99366.16;4982411;28;953;-73
2023/12/18 04:48:38;;;;;;;;;;;;;;;21.93;22.64;99374.53;4998582;28;764;-72
2023/12/18 04:51:04;;;;;;;;;;;;;;;21.79;22.55;99375.41;4982504;28;1093;-73
2023/12/18 04:53:31;;;;;;;;;;;;;;;21.70;22.84;99365.75;4998770;28;923;-73
2023/12/18 04:55:57;;;;;;;;;;;;;;;21.78;22.83;99379.47;4982319;28;1978;-73
2023/12/18 04:58:22;;;;;;;;;;;;;;;21.46;22.98;99373.16;4998433;28;911;-72
2023/12/18 05:00:48;;;;;;;;;;;;;;;21.77;22.88;99377.88;4982366;28;1222;-72
2023/12/18 05:03:13;;;;;;;;;;;;;;;21.69;22.95;99370.63;4982579;28;1225;-73
2023/12/18 05:05:39;;;;;;;;;;;;;;;21.67;22.88;99364.56;5014721;28;936;-72
2023/12/18 05:08:04;;;;;;;;;;;;;;;21.83;22.62;99359.22;4982110;28;1204;-72
2023/12/18 05:10:30;;;;;;;;;;;;;;;21.76;22.47;99367.75;5001322;28;1161;-73
2023/12/18 05:12:55;;;;;;;;;;;;;;;21.94;22.58;99370.47;5017879;28;1057;-73
2023/12/18 05:15:21;;;;;;;;;;;;;;;21.69;22.80;99370.63;4985135;28;1906;-73
2023/12/18 05:17:46;;;;;;;;;;;;;;;21.79;22.44;99368.94;5008413;28;1406;-73
2023/12/18 05:20:12;;;;;;;;;;;;;;;21.55;22.96;99370.69;5034768;28;999;-72
2023/12/18 05:22:38;;;;;;;;;;;;;;;21.67;22.61;99366.59;5018850;28;1573;-73
2023/12/18 05:25:04;;;;;;;;;;;;;;;21.54;22.96;99363.41;4994887;28;992;-72
2023/12/18 05:27:29;;;;;;;;;;;;;;;21.60;22.56;99367.41;4995074;28;1066;-74
2023/12/18 05:29:55;;;;;;;;;;;;;;;21.78;22.64;99365.31;4978531;28;942;-73
2023/12/18 05:32:20;;;;;;;;;;;;;;;21.67;22.81;99369.44;4978508;28;1008;-73
2023/12/18 05:34:48;;;;;;;;;;;;;;;21.59;22.89;99365.81;4978363;28;1075;-73
2023/12/18 05:37:13;;;;;;;;;;;;;;;21.57;22.62;99357.72;4978332;28;1991;-72
2023/12/18 05:39:39;;;;;;;;;;;;;;;21.74;22.55;99361.69;4962152;28;1643;-73
2023/12/18 05:42:04;;;;;;;;;;;;;;;21.66;22.79;99354.47;4978385;28;982;-73
2023/12/18 05:44:30;;;;;;;;;;;;;;;21.58;22.69;99358.53;4977999;28;1640;-74
2023/12/18 05:46:55;;;;;;;;;;;;;;;21.57;22.56;99362.59;4994714;28;1523;-72
2023/12/18 05:49:21;;;;;;;;;;;;;;;21.74;22.49;99361.69;4958021;28;1676;-72
2023/12/18 05:51:46;;;;;;;;;;;;;;;21.59;22.88;99360.94;4975391;28;1012;-73
2023/12/18 05:54:12;;;;;;;;;;;;;;;21.68;22.75;99357.69;4975210;28;1164;-73
2023/12/18 05:56:37;;;;;;;;;;;;;;;21.72;22.68;99352.81;5005500;28;1979;-73
2023/12/18 05:59:03;;;;;;;;;;;;;;;21.66;22.47;99347.97;4998895;28;1126;-73
2023/12/18 06:01:28;;;;;;;;;;;;;;;21.69;22.45;99347.16;4998801;28;1156;-73
2023/12/18 06:03:54;;;;;;;;;;;;;;;21.71;22.62;99342.69;4982905;28;1026;-73
2023/12/18 06:06:20;;;;;;;;;;;;;;;21.45;22.65;99349.72;4998652;28;1041;-73
2023/12/18 06:08:45;;;;;;;;;;;;;;;21.67;22.63;99339.06;4998802;28;964;-72
2023/12/18 06:11:11;;;;;;;;;;;;;;;21.87;22.26;99335.72;5015877;28;975;-73
2023/12/18 06:13:39;;;;;;;;;;;;;;;21.74;22.38;99347.50;4999242;28;906;-73
2023/12/18 06:16:04;;;;;;;;;;;;;;;21.53;22.61;99350.47;4997568;28;1914;-74
2023/12/18 06:18:30;;;;;;;;;;;;;;;21.70;22.43;99349.56;4998791;28;1027;-73
2023/12/18 06:20:55;;;;;;;;;;;;;;;21.74;22.38;99341.84;4998494;28;984;-73
2023/12/18 06:23:21;;;;;;;;;;;;;;;21.81;22.50;99347.50;5014544;28;997;-73
2023/12/18 06:25:46;;;;;;;;;;;;;;;21.72;22.38;99347.13;4998309;28;966;-73
2023/12/18 06:28:12;;;;;;;;;;;;;;;21.88;22.40;99337.34;4982309;28;2464;-72
2023/12/18 06:30:37;;;;;;;;;;;;;;;21.79;22.26;99335.75;5016430;28;975;-73
2023/12/18 06:33:03;;;;;;;;;;;;;;;21.66;22.81;99342.28;4998483;28;1108;-73
2023/12/18 06:35:29;;;;;;;;;;;;;;;21.94;22.51;99324.31;4998389;28;1902;-73
2023/12/18 06:37:54;;;;;;;;;;;;;;;21.78;22.60;99331.31;4998318;28;1002;-73
2023/12/18 06:40:20;;;;;;;;;;;;;;;21.88;22.27;99321.13;4998261;28;1001;-73
2023/12/18 06:42:45;;;;;;;;;;;;;;;21.78;22.57;99322.81;5016305;28;952;-73
2023/12/18 06:45:11;;;;;;;;;;;;;;;21.89;22.32;99316.25;4998361;28;1131;-72
2023/12/18 06:47:36;;;;;;;;;;;;;;;21.83;22.52;99318.75;4998500;28;1138;-72
2023/12/18 06:50:03;;;;;;;;;;;;;;;21.61;22.46;99314.44;4993701;28;1230;-72
2023/12/18 06:52:28;;;;;;;;;;;;;;;21.60;22.41;99319.25;4993921;28;1029;-73
2023/12/18 06:54:54;;;;;;;;;;;;;;;21.56;22.35;99324.16;4993579;28;1119;-73
2023/12/18 06:57:20;;;;;;;;;;;;;;;21.93;21.91;99317.06;4993729;28;1906;-73
2023/12/18 06:59:45;;;;;;;;;;;;;;;21.66;22.13;99319.63;4993924;28;995;-72
2023/12/18 07:02:11;;;;;;;;;;;;;;;21.57;22.57;99317.28;4997558;28;1034;-73
2023/12/18 07:04:36;;;;;;;;;;;;;;;21.49;22.57;99305.16;4997308;28;959;-73
2023/12/18 07:07:02;;;;;;;;;;;;;;;21.77;22.17;99304.19;4997698;28;1030;-74
2023/12/18 07:09:27;;;;;;;;;;;;;;;21.47;22.35;99318.13;4981067;28;1082;-73
2023/12/18 07:11:53;;;;;;;;;;;;;;;21.37;22.71;99307.69;4997549;28;1114;-72
2023/12/18 07:14:18;;;;;;;;;;;;;;;21.46;22.36;99302.38;4997500;28;999;-72
2023/12/18 07:16:44;;;;;;;;;;;;;;;21.54;22.25;99312.44;4969198;28;1911;-73
2023/12/18 07:19:09;;;;;;;;;;;;;;;21.68;22.26;99303.84;5016829;28;1017;-72
2023/12/18 07:21:35;;;;;;;;;;;;;;;21.66;22.33;99303.47;5016382;28;1688;-73
2023/12/18 07:24:00;;;;;;;;;;;;;;;21.89;22.00;99299.25;5016755;28;1869;-73
2023/12/18 07:26:26;;;;;;;;;;;;;;;21.90;22.03;99306.53;4999922;28;1530;-73
2023/12/18 07:28:51;;;;;;;;;;;;;;;21.66;22.08;99306.31;5016632;28;1392;-73
2023/12/18 07:31:18;;;;;;;;;;;;;;;21.59;22.50;99314.81;5001366;28;1084;-73
2023/12/18 07:33:43;;;;;;;;;;;;;;;21.43;22.79;99308.84;5017646;28;1292;-72
2023/12/18 07:36:09;;;;;;;;;;;;;;;21.51;22.35;99318.94;4996963;28;1977;-73
2023/12/18 07:38:37;;;;;;;;;;;;;;;21.50;22.55;99320.13;4942023;29;1117;-73
2023/12/18 07:41:03;;;;;;;;;;;;;;;21.43;22.63;99326.66;4942284;29;1090;-73
2023/12/18 07:43:29;;;;;;;;;;;;;;;21.52;22.21;99321.34;4922857;29;1074;-72
2023/12/18 07:45:54;;;;;;;;;;;;;;;21.68;21.99;99318.00;4907578;29;932;-73
2023/12/18 07:48:23;;;;;;;;;;;;;;;21.45;22.51;99321.41;4922726;29;995;-73
2023/12/18 07:50:48;;;;;;;;;;;;;;;21.65;22.18;99332.19;4922802;29;969;-72
2023/12/18 07:53:14;;;;;;;;;;;;;;;21.66;22.14;99325.31;4939221;29;1038;-73
2023/12/18 07:55:40;;;;;;;;;;;;;;;21.59;21.89;99320.50;4922477;29;1977;-73
2023/12/18 07:58:05;;;;;;;;;;;;;;;21.64;21.98;99311.56;4938517;29;1013;-73
2023/12/18 08:00:30;;;;;;;;;;;;;;;21.50;22.37;99317.28;4907056;29;1110;-73
2023/12/18 08:02:56;;;;;;;;;;;;;;;21.66;22.11;99319.63;4938750;29;1106;-73
2023/12/18 08:05:21;;;;;;;;;;;;;;;21.59;22.07;99320.50;4922791;29;1123;-73
2023/12/18 08:07:47;;;;;;;;;;;;;;;21.47;22.35;99312.47;4938642;29;987;-73
2023/12/18 08:10:13;;;;;;;;;;;;;;;21.45;22.38;99315.72;4938174;29;1136;-72
2023/12/18 08:12:38;;;;;;;;;;;;;;;21.53;22.14;99310.81;4937835;29;1022;-73
2023/12/18 08:15:04;;;;;;;;;;;;;;;21.51;22.45;99313.28;4959379;28;960;-73
2023/12/18 08:17:36;;;;;;;;;;;;;;;21.51;22.09;99310.44;5018318;28;1910;-73
2023/12/18 08:20:01;;;;;;;;;;;;;;;21.46;22.42;99317.34;5000816;28;1340;-73
2023/12/18 08:22:27;;;;;;;;;;;;;;;21.63;22.03;99321.28;4999815;28;1078;-72
2023/12/18 08:24:52;;;;;;;;;;;;;;;21.73;22.14;99320.41;5017105;28;1020;-73
2023/12/18 08:27:18;;;;;;;;;;;;;;;21.44;22.36;99330.28;5016654;28;1136;-72
2023/12/18 08:29:43;;;;;;;;;;;;;;;21.37;22.28;99336.78;5000480;28;956;-73
2023/12/18 08:32:09;;;;;;;;;;;;;;;21.60;22.11;99333.44;5017576;28;1047;-73
2023/12/18 08:34:34;;;;;;;;;;;;;;;21.72;22.21;99318.81;5017928;28;1038;-73
2023/12/18 08:37:00;;;;;;;;;;;;;;;21.68;22.11;99326.50;5000175;28;1922;-73
2023/12/18 08:39:25;;;;;;;;;;;;;;;21.48;22.35;99314.09;5016601;28;1017;-73
2023/12/18 08:41:51;;;;;;;;;;;;;;;21.64;22.26;99317.22;5017501;28;1039;-72
2023/12/18 08:44:16;;;;;;;;;;;;;;;21.73;22.24;99316.78;5000461;28;949;-73
2023/12/18 08:50:09;;;;;;;;;;;;;;;21.38;22.74;99309.28;5017390;28;905;-72
2023/12/18 08:52:35;;;;;;;;;;;;;;;21.55;22.20;99314.03;5017714;28;960;-73
2023/12/18 08:55:01;;;;;;;;;;;;;;;21.61;22.53;99301.06;5016365;28;1002;-73
2023/12/18 08:57:27;;;;;;;;;;;;;;;21.78;22.01;99302.97;5015824;28;1906;-72
2023/12/18 08:59:54;;;;;;;;;;;;;;;21.63;22.27;99304.28;4975699;28;972;-73
2023/12/18 09:02:19;;;;;;;;;;;;;;;21.55;22.31;99297.03;4976155;28;980;-73
2023/12/18 09:04:45;;;;;;;;;;;;;;;21.68;22.23;99278.34;4989212;28;1552;-73
2023/12/18 09:07:10;;;;;;;;;;;;;;;21.51;22.57;99279.28;4995213;28;1582;-73
2023/12/18 09:09:39;;;;;;;;;;;;;;;21.50;22.78;99277.66;4994905;28;1625;-73
2023/12/18 09:12:08;;;;;;;;;;;;;;;21.67;22.52;99273.91;4978141;28;1496;-73
2023/12/18 09:14:33;;;;;;;;;;;;;;;21.54;22.61;99261.44;4994942;28;1538;-73
2023/12/18 09:16:59;;;;;;;;;;;;;;;21.56;22.56;99254.16;4994798;28;1977;-72
2023/12/18 09:19:25;;;;;;;;;;;;;;;21.60;22.36;99248.47;4962453;28;1696;-73
2023/12/18 09:21:51;;;;;;;;;;;;;;;21.82;22.29;99252.75;4995422;28;997;-73
2023/12/18 09:24:16;;;;;;;;;;;;;;;21.85;21.99;99240.59;4994370;28;942;-72
2023/12/18 09:26:43;;;;;;;;;;;;;;;21.79;22.34;99253.59;4995798;28;1170;-74
2023/12/18 09:29:09;;;;;;;;;;;;;;;21.36;22.82;99255.09;4979179;28;971;-73
2023/12/18 09:31:35;;;;;;;;;;;;;;;21.42;22.88;99259.09;5010043;28;1065;-72
2023/12/18 09:34:00;;;;;;;;;;;;;;;21.60;22.45;99254.13;5034266;28;1064;-73
2023/12/18 09:36:26;;;;;;;;;;;;;;;21.58;22.39;99253.75;4997885;28;1985;-73
2023/12/18 09:38:51;;;;;;;;;;;;;;;21.55;22.55;99251.72;5014536;28;1037;-73
2023/12/18 09:41:21;;;;;;;;;;;;;;;21.68;22.37;99238.69;4998207;28;1021;-73
2023/12/18 09:43:47;;;;;;;;;;;;;;;21.37;23.17;99245.38;4998443;28;912;-73
2023/12/18 09:46:12;;;;;;;;;;;;;;;21.43;22.75;99226.75;5014143;28;1372;-73
2023/12/18 09:48:38;;;;;;;;;;;;;;;21.59;22.52;99227.03;4988333;28;1522;-72
2023/12/18 09:54:29;;;;;;;;;;;;;;;21.43;22.96;99218.25;4994809;28;1080;-73
2023/12/18 09:56:55;;;;;;;;;;;;;;;21.74;22.55;99219.22;4994843;28;1902;-73
2023/12/18 09:59:21;;;;;;;;;;;;;;;21.74;22.65;99220.03;4994847;28;1116;-72
2023/12/18 10:01:46;;;;;;;;;;;;;;;21.70;22.63;99216.41;4994894;28;990;-73
2023/12/18 10:04:12;;;;;;;;;;;;;;;21.70;22.93;99210.75;4984063;28;1677;-73
2023/12/18 10:06:38;;;;;;;;;;;;;;;21.65;22.85;99216.84;4985984;28;1587;-72
2023/12/18 10:09:09;;;;;;;;;;;;;;;21.82;22.41;99220.78;4985858;28;1845;-73
2023/12/18 10:11:34;;;;;;;;;;;;;;;21.78;22.53;99223.66;4979823;28;1760;-73
2023/12/18 10:14:03;;;;;;;;;;;;;;;21.66;22.88;99217.66;4946674;29;1669;-73
2023/12/18 10:16:28;;;;;;;;;;;;;;;21.79;22.59;99221.63;4945650;29;1906;-73
2023/12/18 10:18:54;;;;;;;;;;;;;;;21.42;22.83;99219.47;4940023;29;2016;-73
2023/12/18 10:21:25;;;;;;;;;;;;;;;21.29;23.59;99228.41;4936542;29;1006;-73
2023/12/18 10:23:52;;;;;;;;;;;;;;;21.37;23.27;99222.75;4936485;29;1214;-73
2023/12/18 10:26:17;;;;;;;;;;;;;;;21.58;22.96;99208.44;4920989;29;984;-72
2023/12/18 10:28:43;;;;;;;;;;;;;;;21.65;22.73;99205.53;4935945;29;1600;-73
2023/12/18 10:31:09;;;;;;;;;;;;;;;21.67;22.73;99197.44;4968235;28;1592;-74
2023/12/18 10:33:34;;;;;;;;;;;;;;;21.73;22.65;99201.44;4956043;28;1374;-73
2023/12/18 10:36:00;;;;;;;;;;;;;;;21.55;22.76;99206.41;4978537;28;1915;-72
2023/12/18 10:38:27;;;;;;;;;;;;;;;21.55;22.87;99212.06;4962707;28;1061;-72
2023/12/18 10:40:54;;;;;;;;;;;;;;;21.46;22.79;99198.41;4962772;28;1058;-73
2023/12/18 10:43:21;;;;;;;;;;;;;;;21.55;23.01;99206.41;4978935;28;1233;-73
2023/12/18 10:45:47;;;;;;;;;;;;;;;21.66;22.96;99195.00;5010917;28;979;-73
2023/12/18 10:48:12;;;;;;;;;;;;;;;21.51;23.24;99191.50;5037596;28;1017;-73
2023/12/18 10:50:38;;;;;;;;;;;;;;;21.66;22.80;99184.50;5037294;28;1074;-73
2023/12/18 10:53:03;;;;;;;;;;;;;;;21.57;22.89;99176.47;5021102;28;1051;-73
2023/12/18 10:55:29;;;;;;;;;;;;;;;21.64;22.91;99175.59;5037056;28;1981;-73
2023/12/18 10:57:56;;;;;;;;;;;;;;;21.63;22.97;99171.16;5037642;28;1003;-73
2023/12/18 11:00:22;;;;;;;;;;;;;;;21.74;22.92;99177.53;5036778;28;1474;-74
2023/12/18 11:02:47;;;;;;;;;;;;;;;21.68;23.06;99182.03;5034564;28;1485;-73
2023/12/18 11:05:13;;;;;;;;;;;;;;;21.50;23.45;99175.72;5036850;28;1604;-72
2023/12/18 11:07:40;;;;;;;;;;;;;;;21.73;23.25;99167.44;5020840;28;1064;-73
2023/12/18 11:10:05;;;;;;;;;;;;;;;21.85;22.71;99161.25;5037169;28;970;-72
2023/12/18 11:12:31;;;;;;;;;;;;;;;21.79;22.96;99164.97;5020317;28;1097;-73
2023/12/18 11:15:05;;;;;;;;;;;;;;;21.59;22.90;99156.22;5004075;28;1590;-72
2023/12/18 11:17:39;;;;;;;;;;;;;;;21.67;23.03;99142.81;5036354;28;1902;-73
2023/12/18 11:20:28;;;;;;;;;;;;;;;21.90;23.06;99147.84;5034758;28;1514;-72
2023/12/18 11:22:55;;;;;;;;;;;;;;;21.63;23.05;99140.00;5033602;28;1289;-73
2023/12/18 11:25:20;;;;;;;;;;;;;;;21.66;23.37;99133.53;5029636;28;1574;-72
2023/12/18 11:27:49;;;;;;;;;;;;;;;21.72;23.05;99140.34;5046996;28;1547;-73
2023/12/18 11:30:24;;;;;;;;;;;;;;;21.85;22.82;99141.41;5025035;28;1964;-72
2023/12/18 11:32:50;;;;;;;;;;;;;;;21.77;22.91;99131.38;5006728;28;1695;-72
2023/12/18 11:35:15;;;;;;;;;;;;;;;21.81;22.92;99131.34;5023801;28;1544;-72
2023/12/18 11:37:48;;;;;;;;;;;;;;;21.89;22.73;99132.09;5010041;28;1631;-73
2023/12/18 11:40:32;;;;;;;;;;;;;;;22.02;22.73;99125.47;5020496;28;1470;-72
2023/12/18 11:42:58;;;;;;;;;;;;;;;21.80;22.90;99139.03;5036539;28;1408;-73
2023/12/18 11:45:24;;;;;;;;;;;;;;;21.82;22.96;99136.59;5036438;28;1374;-73
2023/12/18 11:47:52;;;;;;;;;;;;;;;21.78;23.04;99130.16;5017993;28;1387;-73
2023/12/18 11:50:21;;;;;;;;;;;;;;;21.70;23.09;99117.28;5004279;28;1543;-72
2023/12/18 11:52:50;;;;;;;;;;;;;;;21.70;23.13;99122.13;5037640;28;962;-73
2023/12/18 11:55:34;;;;;;;;;;;;;;;21.82;22.82;99113.94;5038038;28;1084;-72
2023/12/18 11:58:00;;;;;;;;;;;;;;;21.87;22.79;99104.19;5038358;28;936;-73
2023/12/18 12:00:26;;;;;;;;;;;;;;;21.81;22.89;99101.00;5020602;28;973;-73
2023/12/18 12:02:51;;;;;;;;;;;;;;;21.87;22.87;99100.53;5020764;28;956;-73
2023/12/18 12:05:17;;;;;;;;;;;;;;;21.81;22.87;99100.16;5037324;28;944;-73
2023/12/18 12:07:48;;;;;;;;;;;;;;;21.89;22.90;99090.38;5021135;28;1218;-72
2023/12/18 12:10:14;;;;;;;;;;;;;;;21.78;22.81;99084.03;4985088;28;1630;-73
2023/12/18 12:12:39;;;;;;;;;;;;;;;21.76;22.96;99098.63;4985778;28;1496;-73
2023/12/18 12:15:05;;;;;;;;;;;;;;;21.66;23.19;99093.88;4966984;28;1536;-73
2023/12/18 12:17:30;;;;;;;;;;;;;;;21.82;22.75;99085.59;4951736;28;1969;-73
2023/12/18 12:19:56;;;;;;;;;;;;;;;21.80;23.22;99088.03;4949769;28;1359;-72
2023/12/18 12:22:21;;;;;;;;;;;;;;;21.80;22.77;99088.03;4951755;28;1524;-73
2023/12/18 12:24:47;;;;;;;;;;;;;;;21.86;22.98;99085.53;4951435;28;1543;-73
2023/12/18 12:27:12;;;;;;;;;;;;;;;21.68;23.05;99079.28;4965971;28;1597;-72
2023/12/18 12:29:38;;;;;;;;;;;;;;;21.82;22.59;99079.94;4935504;28;1705;-73
2023/12/18 12:32:04;;;;;;;;;;;;;;;21.64;22.85;99079.28;4949924;28;1476;-73
2023/12/18 12:34:29;;;;;;;;;;;;;;;21.77;22.91;99083.22;4977002;28;1240;-72
2023/12/18 12:36:55;;;;;;;;;;;;;;;21.96;22.70;99081.00;4960651;28;1981;-73
2023/12/18 12:39:20;;;;;;;;;;;;;;;21.85;22.85;99079.06;4960769;28;996;-73
2023/12/18 12:41:46;;;;;;;;;;;;;;;21.83;22.60;99081.53;4991104;28;1029;-73
2023/12/18 12:44:11;;;;;;;;;;;;;;;21.79;22.63;99074.31;4996491;28;1104;-73
2023/12/18 12:46:37;;;;;;;;;;;;;;;21.91;22.64;99065.25;5014293;28;991;-73
2023/12/18 12:49:08;;;;;;;;;;;;;;;21.92;22.51;99068.91;5038053;28;935;-73
2023/12/18 12:51:33;;;;;;;;;;;;;;;21.55;23.02;99042.16;5015347;28;954;-73
2023/12/18 12:53:59;;;;;;;;;;;;;;;21.82;22.56;99068.59;5013035;28;963;-72
2023/12/18 12:56:24;;;;;;;;;;;;;;;21.79;22.69;99063.78;4976170;28;1989;-73
2023/12/18 12:58:51;;;;;;;;;;;;;;;21.90;22.64;99062.84;4960072;28;969;-73
2023/12/18 13:01:16;;;;;;;;;;;;;;;21.94;22.36;99063.63;4960283;28;1056;-73